sensor_id;sensor_type;location;lat;lon;timestamp;temperature;humidity
52947;DHT22;68773;40.400;17.260;2023-06-01T05:01:59;20.40;99.90
52947;DHT22;68773;40.400;17.260;2023-06-01T05:04:25;20.50;99.90
52947;DHT22;68773;40.400;17.260;2023-06-01T05:11:44;20.60;99.90
52947;DHT22;68773;40.400;17.260;2023-06-01T05:14:10;20.30;99.90
52947;DHT22;68773;40.400;17.260;2023-06-01T05:16:35;20.50;99.90
52947;DHT22;68773;40.400;17.260;2023-06-01T05:19:01;20.40;99.90
52947;DHT22;68773;40.400;17.260;2023-06-01T05:21:27;20.30;99.90
52947;DHT22;68773;40.400;17.260;2023-06-01T05:23:56;20.30;99.90
52947;DHT22;68773;40.400;17.260;2023-06-01T05:26:21;20.30;99.90
52947;DHT22;68773;40.400;17.260;2023-06-01T05:33:29;21.20;99.90
52947;DHT22;68773;40.400;17.260;2023-06-01T05:35:55;20.30;99.90
52947;DHT22;68773;40.400;17.260;2023-06-01T05:38:21;20.20;99.90
52947;DHT22;68773;40.400;17.260;2023-06-01T05:40:47;20.20;99.90
52947;DHT22;68773;40.400;17.260;2023-06-01T05:46:16;20.30;99.90
52947;DHT22;68773;40.400;17.260;2023-06-01T05:48:42;20.20;99.90
52947;DHT22;68773;40.400;17.260;2023-06-01T05:51:08;20.20;99.90
52947;DHT22;68773;40.400;17.260;2023-06-01T05:53:34;20.30;99.90
52947;DHT22;68773;40.400;17.260;2023-06-01T05:55:59;20.40;99.90
52947;DHT22;68773;40.400;17.260;2023-06-01T05:58:25;20.50;99.90
52947;DHT22;68773;40.400;17.260;2023-06-01T06:00:51;20.40;99.90
52947;DHT22;68773;40.400;17.260;2023-06-01T06:03:17;20.40;99.90
52947;DHT22;68773;40.400;17.260;2023-06-01T06:05:42;20.40;99.90
52947;DHT22;68773;40.400;17.260;2023-06-01T06:08:08;20.50;99.90
52947;DHT22;68773;40.400;17.260;2023-06-01T06:10:36;20.80;99.90
52947;DHT22;68773;40.400;17.260;2023-06-01T06:13:01;20.80;99.90
52947;DHT22;68773;40.400;17.260;2023-06-01T06:15:27;20.80;99.70
52947;DHT22;68773;40.400;17.260;2023-06-01T06:17:54;20.80;99.30
52947;DHT22;68773;40.400;17.260;2023-06-01T06:20:19;20.80;99.70
52947;DHT22;68773;40.400;17.260;2023-06-01T06:22:51;20.70;99.50
52947;DHT22;68773;40.400;17.260;2023-06-01T06:25:18;20.80;99.20
52947;DHT22;68773;40.400;17.260;2023-06-01T06:27:45;20.90;99.30
52947;DHT22;68773;40.400;17.260;2023-06-01T06:30:12;20.80;99.00
52947;DHT22;68773;40.400;17.260;2023-06-01T06:32:37;20.80;99.10
52947;DHT22;68773;40.400;17.260;2023-06-01T06:35:03;20.80;98.90
52947;DHT22;68773;40.400;17.260;2023-06-01T06:37:29;20.80;98.80
52947;DHT22;68773;40.400;17.260;2023-06-01T06:39:55;20.80;98.80
52947;DHT22;68773;40.400;17.260;2023-06-01T06:42:22;20.80;98.90
52947;DHT22;68773;40.400;17.260;2023-06-01T06:44:48;20.80;98.90
52947;DHT22;68773;40.400;17.260;2023-06-01T06:47:14;20.70;99.00
52947;DHT22;68773;40.400;17.260;2023-06-01T06:49:44;20.80;98.80
52947;DHT22;68773;40.400;17.260;2023-06-01T06:52:10;20.80;98.80
52947;DHT22;68773;40.400;17.260;2023-06-01T06:54:39;20.80;98.70
52947;DHT22;68773;40.400;17.260;2023-06-01T06:57:06;20.80;98.70
52947;DHT22;68773;40.400;17.260;2023-06-01T06:59:32;20.70;98.20
52947;DHT22;68773;40.400;17.260;2023-06-01T07:01:58;20.70;98.40
52947;DHT22;68773;40.400;17.260;2023-06-01T07:04:24;20.70;98.40
52947;DHT22;68773;40.400;17.260;2023-06-01T07:06:50;20.80;98.30
52947;DHT22;68773;40.400;17.260;2023-06-01T07:09:17;20.90;98.10
52947;DHT22;68773;40.400;17.260;2023-06-01T07:11:42;20.90;97.90
52947;DHT22;68773;40.400;17.260;2023-06-01T07:14:08;21.00;97.70
52947;DHT22;68773;40.400;17.260;2023-06-01T07:16:34;21.10;97.50
52947;DHT22;68773;40.400;17.260;2023-06-01T07:19:00;21.10;97.30
52947;DHT22;68773;40.400;17.260;2023-06-01T07:21:26;21.10;97.10
52947;DHT22;68773;40.400;17.260;2023-06-01T07:23:52;21.10;97.00
52947;DHT22;68773;40.400;17.260;2023-06-01T07:26:17;21.20;97.10
52947;DHT22;68773;40.400;17.260;2023-06-01T07:28:43;21.40;96.90
52947;DHT22;68773;40.400;17.260;2023-06-01T07:31:09;21.50;96.80
52947;DHT22;68773;40.400;17.260;2023-06-01T07:33:35;21.70;96.20
52947;DHT22;68773;40.400;17.260;2023-06-01T07:36:02;21.90;96.60
52947;DHT22;68773;40.400;17.260;2023-06-01T07:38:28;21.90;96.30
52947;DHT22;68773;40.400;17.260;2023-06-01T07:40:54;22.00;95.70
52947;DHT22;68773;40.400;17.260;2023-06-01T07:43:20;22.10;95.50
52947;DHT22;68773;40.400;17.260;2023-06-01T07:45:46;22.10;95.60
52947;DHT22;68773;40.400;17.260;2023-06-01T07:48:12;22.20;95.70
52947;DHT22;68773;40.400;17.260;2023-06-01T07:50:37;22.20;95.60
52947;DHT22;68773;40.400;17.260;2023-06-01T07:53:03;22.30;94.80
52947;DHT22;68773;40.400;17.260;2023-06-01T07:55:29;22.00;94.50
52947;DHT22;68773;40.400;17.260;2023-06-01T07:57:55;22.40;94.40
52947;DHT22;68773;40.400;17.260;2023-06-01T08:00:21;22.40;94.40
52947;DHT22;68773;40.400;17.260;2023-06-01T08:02:47;22.50;93.90
52947;DHT22;68773;40.400;17.260;2023-06-01T08:05:13;22.40;94.00
52947;DHT22;68773;40.400;17.260;2023-06-01T08:07:43;22.50;94.00
52947;DHT22;68773;40.400;17.260;2023-06-01T08:10:11;22.50;93.80
52947;DHT22;68773;40.400;17.260;2023-06-01T08:12:37;22.50;93.20
52947;DHT22;68773;40.400;17.260;2023-06-01T08:15:03;22.50;92.80
52947;DHT22;68773;40.400;17.260;2023-06-01T08:17:30;22.50;92.20
52947;DHT22;68773;40.400;17.260;2023-06-01T08:19:56;22.50;92.00
52947;DHT22;68773;40.400;17.260;2023-06-01T08:22:23;22.50;92.60
52947;DHT22;68773;40.400;17.260;2023-06-01T08:24:49;22.60;92.70
52947;DHT22;68773;40.400;17.260;2023-06-01T08:27:23;22.60;92.50
52947;DHT22;68773;40.400;17.260;2023-06-01T08:29:49;22.60;92.70
52947;DHT22;68773;40.400;17.260;2023-06-01T08:32:16;22.50;92.40
52947;DHT22;68773;40.400;17.260;2023-06-01T08:34:43;22.40;93.30
52947;DHT22;68773;40.400;17.260;2023-06-01T08:37:11;22.50;93.30
52947;DHT22;68773;40.400;17.260;2023-06-01T08:39:36;22.50;93.70
52947;DHT22;68773;40.400;17.260;2023-06-01T08:44:38;22.50;93.50
52947;DHT22;68773;40.400;17.260;2023-06-01T08:47:05;22.60;94.00
52947;DHT22;68773;40.400;17.260;2023-06-01T08:49:31;22.50;93.50
52947;DHT22;68773;40.400;17.260;2023-06-01T08:52:00;22.50;93.50
52947;DHT22;68773;40.400;17.260;2023-06-01T08:54:28;22.50;93.50
52947;DHT22;68773;40.400;17.260;2023-06-01T08:56:59;22.60;93.60
52947;DHT22;68773;40.400;17.260;2023-06-01T08:59:25;22.60;93.60
52947;DHT22;68773;40.400;17.260;2023-06-01T09:01:53;22.70;93.20
52947;DHT22;68773;40.400;17.260;2023-06-01T09:04:19;22.70;93.10
52947;DHT22;68773;40.400;17.260;2023-06-01T09:06:44;22.70;93.20
52947;DHT22;68773;40.400;17.260;2023-06-01T09:09:12;22.80;92.70
52947;DHT22;68773;40.400;17.260;2023-06-01T09:11:38;22.90;91.60
52947;DHT22;68773;40.400;17.260;2023-06-01T09:14:21;23.00;91.10
52947;DHT22;68773;40.400;17.260;2023-06-01T09:16:47;23.10;91.50
52947;DHT22;68773;40.400;17.260;2023-06-01T09:19:13;23.20;91.30
52947;DHT22;68773;40.400;17.260;2023-06-01T09:21:39;23.10;91.40
52947;DHT22;68773;40.400;17.260;2023-06-01T09:24:20;23.10;91.80
52947;DHT22;68773;40.400;17.260;2023-06-01T09:26:51;23.10;92.60
52947;DHT22;68773;40.400;17.260;2023-06-01T09:29:17;23.10;93.20
52947;DHT22;68773;40.400;17.260;2023-06-01T09:31:44;23.20;93.60
52947;DHT22;68773;40.400;17.260;2023-06-01T09:34:12;23.30;92.50
52947;DHT22;68773;40.400;17.260;2023-06-01T09:36:41;23.30;92.20
52947;DHT22;68773;40.400;17.260;2023-06-01T09:39:13;23.20;91.90
52947;DHT22;68773;40.400;17.260;2023-06-01T09:47:01;23.30;90.50
52947;DHT22;68773;40.400;17.260;2023-06-01T09:49:39;23.40;91.30
52947;DHT22;68773;40.400;17.260;2023-06-01T09:54:46;23.40;88.80
52947;DHT22;68773;40.400;17.260;2023-06-01T09:57:12;23.50;90.30
52947;DHT22;68773;40.400;17.260;2023-06-01T09:59:45;23.60;88.90
52947;DHT22;68773;40.400;17.260;2023-06-01T10:02:17;23.60;87.70
52947;DHT22;68773;40.400;17.260;2023-06-01T10:04:52;23.60;87.50
52947;DHT22;68773;40.400;17.260;2023-06-01T10:07:25;23.50;89.30
52947;DHT22;68773;40.400;17.260;2023-06-01T10:09:54;23.50;89.00
52947;DHT22;68773;40.400;17.260;2023-06-01T10:12:21;23.70;91.00
52947;DHT22;68773;40.400;17.260;2023-06-01T10:14:48;23.80;91.20
52947;DHT22;68773;40.400;17.260;2023-06-01T10:17:15;23.90;91.10
52947;DHT22;68773;40.400;17.260;2023-06-01T10:19:42;24.00;91.20
52947;DHT22;68773;40.400;17.260;2023-06-01T10:22:09;24.10;90.10
52947;DHT22;68773;40.400;17.260;2023-06-01T10:24:37;24.20;90.40
52947;DHT22;68773;40.400;17.260;2023-06-01T10:27:15;24.20;90.80
52947;DHT22;68773;40.400;17.260;2023-06-01T10:29:42;24.30;90.50
52947;DHT22;68773;40.400;17.260;2023-06-01T10:35:04;24.20;89.00
52947;DHT22;68773;40.400;17.260;2023-06-01T10:37:30;24.30;87.20
52947;DHT22;68773;40.400;17.260;2023-06-01T10:42:44;24.30;81.90
52947;DHT22;68773;40.400;17.260;2023-06-01T10:45:39;24.30;83.60
52947;DHT22;68773;40.400;17.260;2023-06-01T10:48:10;24.40;82.20
52947;DHT22;68773;40.400;17.260;2023-06-01T10:50:37;24.50;83.10
52947;DHT22;68773;40.400;17.260;2023-06-01T10:53:28;24.70;84.30
52947;DHT22;68773;40.400;17.260;2023-06-01T10:56:20;24.80;85.20
52947;DHT22;68773;40.400;17.260;2023-06-01T11:01:38;24.90;85.00
52947;DHT22;68773;40.400;17.260;2023-06-01T11:04:04;25.10;84.20
52947;DHT22;68773;40.400;17.260;2023-06-01T11:06:35;25.30;84.40
52947;DHT22;68773;40.400;17.260;2023-06-01T11:09:07;25.30;81.40
52947;DHT22;68773;40.400;17.260;2023-06-01T11:21:10;26.00;74.70
52947;DHT22;68773;40.400;17.260;2023-06-01T11:23:38;25.80;71.70
52947;DHT22;68773;40.400;17.260;2023-06-01T11:26:06;26.00;70.70
52947;DHT22;68773;40.400;17.260;2023-06-01T11:28:33;26.90;68.70
52947;DHT22;68773;40.400;17.260;2023-06-01T11:31:02;27.40;72.00
52947;DHT22;68773;40.400;17.260;2023-06-01T11:33:29;27.30;75.30
52947;DHT22;68773;40.400;17.260;2023-06-01T11:36:01;27.70;76.90
52947;DHT22;68773;40.400;17.260;2023-06-01T11:38:48;27.20;83.70
52947;DHT22;68773;40.400;17.260;2023-06-01T11:46:07;27.60;73.20
52947;DHT22;68773;40.400;17.260;2023-06-01T11:48:34;27.40;68.40
52947;DHT22;68773;40.400;17.260;2023-06-01T11:51:01;26.40;68.90
52947;DHT22;68773;40.400;17.260;2023-06-01T11:53:28;24.80;74.10
52947;DHT22;68773;40.400;17.260;2023-06-01T11:55:55;24.00;77.20
52947;DHT22;68773;40.400;17.260;2023-06-01T11:58:25;23.70;82.60
52947;DHT22;68773;40.400;17.260;2023-06-01T12:17:06;22.90;79.90
52947;DHT22;68773;40.400;17.260;2023-06-01T12:29:55;23.20;86.30
52947;DHT22;68773;40.400;17.260;2023-06-01T12:32:23;23.80;84.90
52947;DHT22;68773;40.400;17.260;2023-06-01T12:35:05;24.40;83.10
52947;DHT22;68773;40.400;17.260;2023-06-01T12:55:05;26.40;69.20
52947;DHT22;68773;40.400;17.260;2023-06-01T12:57:33;26.50;68.70
52947;DHT22;68773;40.400;17.260;2023-06-01T12:59:59;27.30;66.40
52947;DHT22;68773;40.400;17.260;2023-06-01T13:02:26;27.30;64.40
52947;DHT22;68773;40.400;17.260;2023-06-01T13:04:52;27.50;63.20
52947;DHT22;68773;40.400;17.260;2023-06-01T13:07:22;27.50;64.00
52947;DHT22;68773;40.400;17.260;2023-06-01T13:09:49;27.10;63.70
52947;DHT22;68773;40.400;17.260;2023-06-01T13:12:15;27.30;63.80
52947;DHT22;68773;40.400;17.260;2023-06-01T13:14:41;27.50;65.70
52947;DHT22;68773;40.400;17.260;2023-06-01T13:17:07;28.20;65.00
52947;DHT22;68773;40.400;17.260;2023-06-01T13:19:33;28.60;64.50
52947;DHT22;68773;40.400;17.260;2023-06-01T13:21:58;29.20;64.00
52947;DHT22;68773;40.400;17.260;2023-06-01T13:24:24;28.70;62.90
52947;DHT22;68773;40.400;17.260;2023-06-01T13:26:50;29.10;62.50
52947;DHT22;68773;40.400;17.260;2023-06-01T13:29:16;29.20;62.00
52947;DHT22;68773;40.400;17.260;2023-06-01T13:31:41;29.40;62.00
52947;DHT22;68773;40.400;17.260;2023-06-01T13:34:07;29.30;62.50
52947;DHT22;68773;40.400;17.260;2023-06-01T13:36:33;29.00;63.50
52947;DHT22;68773;40.400;17.260;2023-06-01T13:39:00;29.90;62.50
52947;DHT22;68773;40.400;17.260;2023-06-01T13:41:26;29.60;63.30
52947;DHT22;68773;40.400;17.260;2023-06-01T13:43:52;29.70;64.10
52947;DHT22;68773;40.400;17.260;2023-06-01T13:46:18;28.80;65.60
52947;DHT22;68773;40.400;17.260;2023-06-01T13:48:44;28.30;66.00
52947;DHT22;68773;40.400;17.260;2023-06-01T13:51:10;28.20;67.40
52947;DHT22;68773;40.400;17.260;2023-06-01T13:53:36;27.90;68.00
52947;DHT22;68773;40.400;17.260;2023-06-01T13:56:02;27.80;67.90
52947;DHT22;68773;40.400;17.260;2023-06-01T13:58:28;27.10;69.70
52947;DHT22;68773;40.400;17.260;2023-06-01T14:00:54;27.80;69.60
52947;DHT22;68773;40.400;17.260;2023-06-01T14:03:20;27.80;69.00
52947;DHT22;68773;40.400;17.260;2023-06-01T14:05:46;27.50;69.80
52947;DHT22;68773;40.400;17.260;2023-06-01T14:08:11;27.20;69.70
52947;DHT22;68773;40.400;17.260;2023-06-01T14:10:37;26.90;71.10
52947;DHT22;68773;40.400;17.260;2023-06-01T14:13:03;27.00;72.00
52947;DHT22;68773;40.400;17.260;2023-06-01T14:15:29;27.40;72.00
52947;DHT22;68773;40.400;17.260;2023-06-01T14:17:55;27.50;72.10
52947;DHT22;68773;40.400;17.260;2023-06-01T14:20:21;27.80;71.20
52947;DHT22;68773;40.400;17.260;2023-06-01T14:22:47;28.00;70.50
52947;DHT22;68773;40.400;17.260;2023-06-01T14:25:13;27.60;71.80
52947;DHT22;68773;40.400;17.260;2023-06-01T14:27:39;27.30;73.00
52947;DHT22;68773;40.400;17.260;2023-06-01T14:30:06;27.80;72.90
52947;DHT22;68773;40.400;17.260;2023-06-01T14:32:32;27.80;72.30
52947;DHT22;68773;40.400;17.260;2023-06-01T14:34:58;28.50;72.60
52947;DHT22;68773;40.400;17.260;2023-06-01T14:37:24;28.60;71.50
52947;DHT22;68773;40.400;17.260;2023-06-01T14:39:50;28.90;70.90
52947;DHT22;68773;40.400;17.260;2023-06-01T14:42:16;28.70;70.50
52947;DHT22;68773;40.400;17.260;2023-06-01T14:44:42;28.80;71.40
52947;DHT22;68773;40.400;17.260;2023-06-01T14:47:08;28.30;71.70
52947;DHT22;68773;40.400;17.260;2023-06-01T14:49:39;27.90;73.00
52947;DHT22;68773;40.400;17.260;2023-06-01T14:52:05;27.50;74.20
52947;DHT22;68773;40.400;17.260;2023-06-01T14:54:31;26.90;76.00
52947;DHT22;68773;40.400;17.260;2023-06-01T14:56:57;26.80;76.70
52947;DHT22;68773;40.400;17.260;2023-06-01T14:59:23;26.50;77.20
52947;DHT22;68773;40.400;17.260;2023-06-01T15:01:49;26.60;78.40
52947;DHT22;68773;40.400;17.260;2023-06-01T15:04:15;26.40;78.70
52947;DHT22;68773;40.400;17.260;2023-06-01T15:06:41;26.80;77.60
52947;DHT22;68773;40.400;17.260;2023-06-01T15:09:06;27.10;77.10
52947;DHT22;68773;40.400;17.260;2023-06-01T15:11:32;27.60;77.50
52947;DHT22;68773;40.400;17.260;2023-06-01T15:13:58;27.40;77.30
52947;DHT22;68773;40.400;17.260;2023-06-01T15:16:24;27.50;78.90
52947;DHT22;68773;40.400;17.260;2023-06-01T15:18:50;27.40;78.30
52947;DHT22;68773;40.400;17.260;2023-06-01T15:21:16;27.70;79.40
52947;DHT22;68773;40.400;17.260;2023-06-01T15:23:42;27.10;80.30
52947;DHT22;68773;40.400;17.260;2023-06-01T15:26:08;26.80;82.60
52947;DHT22;68773;40.400;17.260;2023-06-01T15:28:33;26.70;81.60
52947;DHT22;68773;40.400;17.260;2023-06-01T15:30:59;26.90;82.90
52947;DHT22;68773;40.400;17.260;2023-06-01T15:33:25;27.00;82.80
52947;DHT22;68773;40.400;17.260;2023-06-01T15:35:50;27.00;81.30
52947;DHT22;68773;40.400;17.260;2023-06-01T15:38:16;26.90;81.00
52947;DHT22;68773;40.400;17.260;2023-06-01T15:40:42;27.20;81.70
52947;DHT22;68773;40.400;17.260;2023-06-01T15:43:08;27.00;80.90
52947;DHT22;68773;40.400;17.260;2023-06-01T15:45:34;27.20;81.80
52947;DHT22;68773;40.400;17.260;2023-06-01T15:47:59;27.40;82.20
52947;DHT22;68773;40.400;17.260;2023-06-01T15:50:25;27.40;81.80
52947;DHT22;68773;40.400;17.260;2023-06-01T15:52:51;27.20;82.20
52947;DHT22;68773;40.400;17.260;2023-06-01T15:55:17;27.40;83.40
52947;DHT22;68773;40.400;17.260;2023-06-01T15:57:42;27.00;83.20
52947;DHT22;68773;40.400;17.260;2023-06-01T16:00:08;27.00;84.40
52947;DHT22;68773;40.400;17.260;2023-06-01T16:02:34;27.00;84.10
52947;DHT22;68773;40.400;17.260;2023-06-01T16:05:00;27.10;84.40
52947;DHT22;68773;40.400;17.260;2023-06-01T16:07:26;26.90;83.30
52947;DHT22;68773;40.400;17.260;2023-06-01T16:09:52;27.20;83.90
52947;DHT22;68773;40.400;17.260;2023-06-01T16:12:17;26.70;83.90
52947;DHT22;68773;40.400;17.260;2023-06-01T16:14:43;27.00;83.90
52947;DHT22;68773;40.400;17.260;2023-06-01T16:17:12;26.90;84.00
52947;DHT22;68773;40.400;17.260;2023-06-01T16:19:41;27.00;84.10
52947;DHT22;68773;40.400;17.260;2023-06-01T16:22:08;26.90;84.60
52947;DHT22;68773;40.400;17.260;2023-06-01T16:24:34;26.70;83.60
52947;DHT22;68773;40.400;17.260;2023-06-01T16:27:03;26.60;83.70
52947;DHT22;68773;40.400;17.260;2023-06-01T16:29:30;26.30;84.20
52947;DHT22;68773;40.400;17.260;2023-06-01T16:31:56;26.30;84.90
52947;DHT22;68773;40.400;17.260;2023-06-01T16:34:22;26.20;84.80
52947;DHT22;68773;40.400;17.260;2023-06-01T16:36:47;26.10;84.90
52947;DHT22;68773;40.400;17.260;2023-06-01T16:39:13;26.00;85.90
52947;DHT22;68773;40.400;17.260;2023-06-01T16:41:41;26.00;86.40
52947;DHT22;68773;40.400;17.260;2023-06-01T16:44:06;26.10;85.20
52947;DHT22;68773;40.400;17.260;2023-06-01T16:46:32;26.10;84.40
52947;DHT22;68773;40.400;17.260;2023-06-01T16:48:58;26.10;83.70
52947;DHT22;68773;40.400;17.260;2023-06-01T16:51:24;26.30;84.00
52947;DHT22;68773;40.400;17.260;2023-06-01T16:53:49;26.40;84.80
52947;DHT22;68773;40.400;17.260;2023-06-01T16:56:18;26.30;84.80
52947;DHT22;68773;40.400;17.260;2023-06-01T16:58:44;26.60;85.20
52947;DHT22;68773;40.400;17.260;2023-06-01T17:01:10;26.70;83.80
52947;DHT22;68773;40.400;17.260;2023-06-01T17:03:36;26.80;83.00
52947;DHT22;68773;40.400;17.260;2023-06-01T17:06:02;26.90;82.80
52947;DHT22;68773;40.400;17.260;2023-06-01T17:08:28;27.30;82.70
52947;DHT22;68773;40.400;17.260;2023-06-01T17:10:53;27.10;82.10
52947;DHT22;68773;40.400;17.260;2023-06-01T17:13:19;27.20;81.60
52947;DHT22;68773;40.400;17.260;2023-06-01T17:15:45;27.10;82.30
52947;DHT22;68773;40.400;17.260;2023-06-01T17:18:11;26.80;83.00
52947;DHT22;68773;40.400;17.260;2023-06-01T17:20:37;26.60;83.20
52947;DHT22;68773;40.400;17.260;2023-06-01T17:23:05;26.70;83.20
52947;DHT22;68773;40.400;17.260;2023-06-01T17:25:31;26.70;83.90
52947;DHT22;68773;40.400;17.260;2023-06-01T17:27:57;26.40;83.90
52947;DHT22;68773;40.400;17.260;2023-06-01T17:30:23;26.10;83.30
52947;DHT22;68773;40.400;17.260;2023-06-01T17:32:49;26.10;84.40
52947;DHT22;68773;40.400;17.260;2023-06-01T17:35:15;25.70;85.60
52947;DHT22;68773;40.400;17.260;2023-06-01T17:37:41;25.70;86.50
52947;DHT22;68773;40.400;17.260;2023-06-01T17:40:08;25.70;86.90
52947;DHT22;68773;40.400;17.260;2023-06-01T17:42:34;25.40;87.20
52947;DHT22;68773;40.400;17.260;2023-06-01T17:44:59;25.40;88.00
52947;DHT22;68773;40.400;17.260;2023-06-01T17:47:25;25.00;88.80
52947;DHT22;68773;40.400;17.260;2023-06-01T17:49:51;24.90;88.80
52947;DHT22;68773;40.400;17.260;2023-06-01T17:52:19;24.90;89.40
52947;DHT22;68773;40.400;17.260;2023-06-01T17:54:44;24.70;89.60
52947;DHT22;68773;40.400;17.260;2023-06-01T17:57:10;24.50;90.00
52947;DHT22;68773;40.400;17.260;2023-06-01T17:59:36;24.60;90.20
52947;DHT22;68773;40.400;17.260;2023-06-01T18:02:02;24.10;90.60
52947;DHT22;68773;40.400;17.260;2023-06-01T18:04:28;24.10;90.90
52947;DHT22;68773;40.400;17.260;2023-06-01T18:06:53;24.30;90.90
52947;DHT22;68773;40.400;17.260;2023-06-01T18:09:19;24.20;91.10
52947;DHT22;68773;40.400;17.260;2023-06-01T18:11:48;23.80;91.20
52947;DHT22;68773;40.400;17.260;2023-06-01T18:14:13;23.70;91.10
52947;DHT22;68773;40.400;17.260;2023-06-01T18:16:39;23.80;90.70
52947;DHT22;68773;40.400;17.260;2023-06-01T18:19:05;23.80;90.50
52947;DHT22;68773;40.400;17.260;2023-06-01T18:21:30;23.90;90.60
52947;DHT22;68773;40.400;17.260;2023-06-01T18:23:56;23.40;90.30
52947;DHT22;68773;40.400;17.260;2023-06-01T18:26:22;23.40;90.40
52947;DHT22;68773;40.400;17.260;2023-06-01T18:28:47;23.30;90.30
52947;DHT22;68773;40.400;17.260;2023-06-01T18:31:13;23.10;90.60
52947;DHT22;68773;40.400;17.260;2023-06-01T18:33:39;23.00;91.00
52947;DHT22;68773;40.400;17.260;2023-06-01T18:36:07;23.00;91.00
52947;DHT22;68773;40.400;17.260;2023-06-01T18:38:33;22.80;91.00
52947;DHT22;68773;40.400;17.260;2023-06-01T18:40:58;22.90;91.10
52947;DHT22;68773;40.400;17.260;2023-06-01T18:43:24;23.10;91.30
52947;DHT22;68773;40.400;17.260;2023-06-01T18:45:50;22.80;91.40
52947;DHT22;68773;40.400;17.260;2023-06-01T18:48:22;23.10;91.70
52947;DHT22;68773;40.400;17.260;2023-06-01T18:50:49;22.80;92.00
52947;DHT22;68773;40.400;17.260;2023-06-01T18:53:16;22.80;92.30
52947;DHT22;68773;40.400;17.260;2023-06-01T18:55:43;23.10;92.80
52947;DHT22;68773;40.400;17.260;2023-06-01T18:58:08;23.10;93.30
52947;DHT22;68773;40.400;17.260;2023-06-01T19:00:34;23.10;93.70
52947;DHT22;68773;40.400;17.260;2023-06-01T19:03:00;23.10;94.00
52947;DHT22;68773;40.400;17.260;2023-06-01T19:05:25;23.00;94.20
52947;DHT22;68773;40.400;17.260;2023-06-01T19:07:51;22.80;94.10
52947;DHT22;68773;40.400;17.260;2023-06-01T19:13:15;22.80;94.40
52947;DHT22;68773;40.400;17.260;2023-06-01T19:15:42;23.30;94.40
52947;DHT22;68773;40.400;17.260;2023-06-01T19:18:08;23.30;94.30
52947;DHT22;68773;40.400;17.260;2023-06-01T19:23:06;22.90;95.00
52947;DHT22;68773;40.400;17.260;2023-06-01T19:25:32;23.00;95.40
52947;DHT22;68773;40.400;17.260;2023-06-01T19:27:58;23.00;95.60
52947;DHT22;68773;40.400;17.260;2023-06-01T19:30:27;23.10;95.90
52947;DHT22;68773;40.400;17.260;2023-06-01T19:32:55;23.10;96.00
52947;DHT22;68773;40.400;17.260;2023-06-01T19:35:24;23.10;96.20
52947;DHT22;68773;40.400;17.260;2023-06-01T19:37:50;22.80;96.30
52947;DHT22;68773;40.400;17.260;2023-06-01T19:40:17;22.90;96.60
52947;DHT22;68773;40.400;17.260;2023-06-01T19:42:45;22.60;97.30
52947;DHT22;68773;40.400;17.260;2023-06-01T19:45:28;22.50;97.50
52947;DHT22;68773;40.400;17.260;2023-06-01T19:47:54;22.40;97.80
52947;DHT22;68773;40.400;17.260;2023-06-01T19:52:59;22.50;98.20
52947;DHT22;68773;40.400;17.260;2023-06-01T19:55:27;22.50;98.20
52947;DHT22;68773;40.400;17.260;2023-06-01T19:57:53;22.40;98.00
52947;DHT22;68773;40.400;17.260;2023-06-01T20:00:18;22.50;97.30
52947;DHT22;68773;40.400;17.260;2023-06-01T20:02:48;22.30;97.50
52947;DHT22;68773;40.400;17.260;2023-06-01T20:05:19;22.40;97.80
52947;DHT22;68773;40.400;17.260;2023-06-01T20:07:45;22.20;97.90
52947;DHT22;68773;40.400;17.260;2023-06-01T20:10:19;22.30;98.10
52947;DHT22;68773;40.400;17.260;2023-06-01T20:12:47;22.40;98.10
52947;DHT22;68773;40.400;17.260;2023-06-01T20:15:12;22.00;98.30
52947;DHT22;68773;40.400;17.260;2023-06-01T20:17:38;22.20;98.70
52947;DHT22;68773;40.400;17.260;2023-06-01T20:20:05;22.20;98.90
52947;DHT22;68773;40.400;17.260;2023-06-01T20:22:32;22.20;99.00
52947;DHT22;68773;40.400;17.260;2023-06-01T20:25:00;22.40;98.90
52947;DHT22;68773;40.400;17.260;2023-06-01T20:27:32;22.50;98.60
52947;DHT22;68773;40.400;17.260;2023-06-01T20:30:02;22.30;98.40
52947;DHT22;68773;40.400;17.260;2023-06-01T20:32:28;22.40;99.20
52947;DHT22;68773;40.400;17.260;2023-06-01T20:34:55;22.30;99.50
52947;DHT22;68773;40.400;17.260;2023-06-01T20:37:21;22.30;99.60
52947;DHT22;68773;40.400;17.260;2023-06-01T20:39:49;22.00;99.70
52947;DHT22;68773;40.400;17.260;2023-06-01T20:42:16;22.10;99.90
52947;DHT22;68773;40.400;17.260;2023-06-01T20:44:42;22.20;99.90
52947;DHT22;68773;40.400;17.260;2023-06-01T20:47:08;21.70;99.90
52947;DHT22;68773;40.400;17.260;2023-06-01T20:49:34;21.70;99.90
52947;DHT22;68773;40.400;17.260;2023-06-01T20:51:59;21.80;99.90
52947;DHT22;68773;40.400;17.260;2023-06-01T20:54:26;21.70;99.90
52947;DHT22;68773;40.400;17.260;2023-06-01T20:56:57;21.80;99.90
52947;DHT22;68773;40.400;17.260;2023-06-01T20:59:30;21.70;99.90
52947;DHT22;68773;40.400;17.260;2023-06-01T21:02:04;21.70;99.90
52947;DHT22;68773;40.400;17.260;2023-06-01T21:04:32;21.80;99.90
52947;DHT22;68773;40.400;17.260;2023-06-01T21:06:59;21.70;99.90
52947;DHT22;68773;40.400;17.260;2023-06-01T21:09:25;21.60;99.90
52947;DHT22;68773;40.400;17.260;2023-06-01T21:11:53;21.50;99.90
52947;DHT22;68773;40.400;17.260;2023-06-01T21:14:19;21.50;99.90
52947;DHT22;68773;40.400;17.260;2023-06-01T21:16:45;21.80;99.90
52947;DHT22;68773;40.400;17.260;2023-06-01T21:19:11;21.50;99.90
52947;DHT22;68773;40.400;17.260;2023-06-01T21:21:37;21.40;99.90
52947;DHT22;68773;40.400;17.260;2023-06-01T21:24:04;21.30;99.90
52947;DHT22;68773;40.400;17.260;2023-06-01T21:26:30;21.50;99.90
52947;DHT22;68773;40.400;17.260;2023-06-01T21:28:55;21.70;99.90
52947;DHT22;68773;40.400;17.260;2023-06-01T21:31:21;21.50;99.90
52947;DHT22;68773;40.400;17.260;2023-06-01T21:33:47;21.80;99.90
52947;DHT22;68773;40.400;17.260;2023-06-01T21:42:57;20.90;99.90
52947;DHT22;68773;40.400;17.260;2023-06-01T21:45:23;20.50;99.90
52947;DHT22;68773;40.400;17.260;2023-06-01T21:47:49;20.60;99.90
52947;DHT22;68773;40.400;17.260;2023-06-01T21:50:15;20.50;99.90
52947;DHT22;68773;40.400;17.260;2023-06-01T21:52:41;20.40;99.90
52947;DHT22;68773;40.400;17.260;2023-06-01T21:55:07;20.60;99.90
52947;DHT22;68773;40.400;17.260;2023-06-01T21:57:33;20.60;99.90
52947;DHT22;68773;40.400;17.260;2023-06-01T21:59:59;20.50;99.90